createdAt,value
2019-02-08T00:04:10.665Z,2.90
2019-02-08T00:09:16.676Z,3.23
2019-02-08T00:14:23.165Z,3.27
2019-02-08T00:19:30.127Z,3.10
2019-02-08T00:24:36.172Z,2.83
2019-02-08T00:29:42.108Z,2.47
2019-02-08T00:34:48.664Z,2.60
2019-02-08T00:39:54.593Z,2.13
2019-02-08T00:45:00.699Z,4.27
2019-02-08T07:35:54.012Z,7.30
2019-02-08T07:41:21.785Z,7.23
2019-02-08T07:46:39.097Z,6.73
2019-02-08T07:52:22.744Z,6.47
2019-02-08T07:57:51.119Z,6.60
2019-02-08T08:03:28.768Z,6.50
2019-02-08T08:08:55.699Z,6.57
2019-02-08T08:14:39.194Z,6.30
2019-02-08T08:20:17.034Z,5.57
2019-02-08T08:25:43.455Z,5.90
2019-02-08T08:31:12.013Z,6.20
2019-02-08T08:36:52.557Z,4.60
2019-02-08T08:42:44.164Z,5.10
2019-02-08T08:48:20.146Z,4.83
2019-02-08T08:54:07.399Z,5.40
2019-02-08T08:59:47.113Z,5.00
2019-02-08T09:05:33.803Z,5.07
2019-02-08T09:10:51.651Z,4.33
2019-02-08T09:16:40.851Z,4.40
2019-02-08T09:22:10.969Z,4.40
2019-02-08T09:27:47.979Z,4.80
2019-02-08T09:33:34.577Z,4.40
2019-02-08T09:39:11.751Z,4.23
2019-02-08T09:44:51.258Z,4.80
2019-02-08T09:50:47.717Z,5.23
2019-02-08T09:56:36.699Z,5.27
2019-02-08T10:02:29.010Z,5.03
2019-02-08T10:08:06.945Z,4.63
2019-02-08T10:13:43.810Z,4.50
2019-02-08T10:19:30.078Z,4.67
2019-02-08T10:25:32.370Z,4.40
2019-02-08T10:31:15.154Z,4.73
2019-02-08T10:37:07.781Z,4.23
2019-02-08T10:42:47.125Z,4.00
2019-02-08T10:48:26.526Z,4.27
2019-02-08T10:54:22.812Z,4.77
2019-02-08T10:59:55.585Z,4.43
2019-02-08T11:06:00.937Z,4.03
2019-02-08T11:11:42.336Z,3.90
2019-02-08T11:17:14.321Z,4.57
2019-02-08T11:22:22.461Z,3.97
2019-02-08T11:27:28.397Z,4.23
2019-02-08T11:32:43.215Z,3.63
2019-02-08T11:37:42.616Z,3.20
2019-02-08T11:42:48.747Z,3.73
2019-02-08T11:47:55.965Z,3.90
2019-02-08T11:53:02.254Z,3.10
2019-02-08T11:58:10.881Z,3.27
2019-02-08T12:03:17.092Z,3.43
2019-02-08T12:08:23.361Z,3.10
2019-02-08T12:13:29.642Z,4.00
2019-02-08T12:18:35.751Z,2.77
2019-02-08T12:23:41.980Z,2.93
2019-02-08T12:28:48.674Z,3.17
2019-02-08T12:33:54.986Z,2.50
2019-02-08T12:39:05.027Z,4.43
2019-02-08T12:44:12.151Z,2.20
2019-02-08T12:49:18.492Z,2.60
2019-02-08T12:54:25.048Z,2.13
2019-02-08T12:59:32.306Z,1.90
2019-02-08T13:04:38.593Z,2.10
2019-02-08T13:09:44.977Z,1.70
2019-02-08T13:14:51.380Z,2.10
2019-02-08T13:19:57.608Z,2.30
2019-02-08T13:25:05.716Z,2.50
2019-02-08T13:30:16.305Z,2.10
2019-02-08T13:35:22.390Z,2.07
2019-02-08T13:40:28.910Z,1.87
2019-02-08T13:45:35.164Z,2.43
2019-02-08T13:50:43.285Z,2.67
2019-02-08T13:55:49.665Z,2.37
2019-02-08T14:00:56.022Z,2.47
2019-02-08T14:06:02.045Z,2.07
2019-02-08T14:11:08.222Z,2.07
2019-02-08T14:16:14.610Z,2.67
2019-02-08T14:21:21.806Z,1.60
2019-02-08T14:26:28.707Z,2.30
2019-02-08T14:31:36.291Z,1.97
2019-02-08T14:36:42.598Z,2.57
2019-02-08T14:41:50.187Z,2.23
2019-02-08T14:46:56.560Z,2.00
2019-02-08T14:52:03.188Z,2.17
2019-02-08T14:57:16.519Z,2.30
2019-02-08T15:02:21.796Z,1.90
2019-02-08T15:07:28.107Z,2.40
2019-02-08T15:12:34.377Z,2.20
2019-02-08T15:17:43.163Z,2.20
2019-02-08T15:22:49.317Z,2.07
2019-02-08T15:27:55.550Z,2.00
2019-02-08T15:33:02.650Z,1.80
2019-02-08T15:38:08.820Z,1.77
2019-02-08T15:43:16.581Z,1.97
2019-02-08T15:48:23.113Z,1.67
2019-02-08T15:53:29.387Z,1.93
2019-02-08T15:58:35.522Z,2.13
2019-02-08T16:03:42.106Z,1.83
2019-02-08T16:08:48.115Z,1.80
2019-02-08T16:13:55.238Z,1.90
2019-02-08T16:19:01.303Z,2.13
2019-02-08T16:24:08.369Z,2.07
2019-02-08T16:29:14.583Z,1.73
2019-02-08T16:34:20.963Z,2.37
2019-02-08T16:39:27.265Z,1.50
2019-02-08T16:44:33.350Z,2.50
2019-02-08T16:49:41.284Z,1.97
2019-02-08T16:54:48.442Z,2.10
2019-02-08T16:59:54.897Z,2.03
2019-02-08T17:05:00.871Z,1.87
2019-02-08T17:10:08.185Z,1.80
2019-02-08T17:15:17.664Z,1.70
2019-02-08T17:20:32.802Z,1.50
2019-02-08T17:25:38.832Z,1.50
2019-02-08T17:30:45.245Z,2.07
2019-02-08T17:35:54.374Z,1.80
2019-02-08T17:41:00.700Z,2.23
2019-02-08T17:46:06.936Z,1.97
2019-02-08T17:51:13.268Z,1.70
2019-02-08T17:56:20.563Z,2.03
2019-02-08T18:01:26.876Z,1.93
2019-02-08T18:06:34.083Z,2.23
2019-02-08T18:11:40.405Z,1.83
2019-02-08T18:16:48.260Z,2.17
2019-02-08T18:21:54.531Z,1.80
2019-02-08T18:27:00.638Z,2.00
2019-02-08T18:32:07.028Z,2.10
2019-02-08T18:37:15.886Z,1.93
2019-02-08T18:42:22.236Z,2.00
2019-02-08T18:47:28.737Z,1.80
2019-02-08T18:52:34.811Z,1.53
2019-02-08T18:57:41.059Z,1.90
2019-02-08T19:02:47.204Z,2.00
2019-02-08T19:07:53.245Z,2.17
2019-02-08T19:13:01.196Z,2.00
2019-02-08T19:18:07.925Z,2.30
2019-02-08T19:23:14.236Z,1.90
2019-02-08T19:28:26.255Z,2.00
2019-02-08T19:33:28.321Z,2.07
2019-02-08T19:38:34.314Z,2.13
2019-02-08T19:43:40.305Z,2.10
2019-02-08T19:48:46.248Z,2.63
2019-02-08T19:53:53.882Z,2.13
2019-02-08T19:58:59.830Z,2.73
2019-02-08T20:04:06.168Z,2.30
2019-02-08T20:09:12.693Z,2.20
2019-02-08T20:14:18.844Z,2.10
2019-02-08T20:19:24.907Z,2.27
2019-02-08T20:24:30.896Z,2.33
2019-02-08T20:29:36.974Z,2.40
2019-02-08T20:34:43.313Z,2.50
2019-02-08T20:39:49.826Z,2.00
2019-02-08T20:44:58.926Z,2.43
2019-02-08T20:50:06.404Z,3.07
2019-02-08T20:55:12.578Z,2.40
2019-02-08T21:00:21.821Z,2.87
2019-02-08T21:05:31.140Z,2.77
2019-02-08T21:10:37.756Z,3.23
2019-02-08T21:15:43.973Z,2.80
2019-02-08T21:20:50.144Z,2.33
2019-02-08T21:25:56.237Z,3.10
2019-02-08T21:31:02.448Z,2.70
2019-02-08T21:36:09.835Z,2.40
2019-02-08T21:41:16.774Z,2.80
2019-02-08T21:46:23.183Z,2.90
2019-02-08T21:51:29.152Z,2.70
2019-02-08T21:56:35.229Z,2.60
2019-02-08T22:01:41.361Z,2.60
2019-02-08T22:06:47.728Z,2.43
2019-02-08T22:11:53.875Z,2.50
2019-02-08T22:17:00.124Z,2.40
2019-02-08T22:22:06.154Z,2.40
2019-02-08T22:27:12.329Z,2.63
2019-02-08T22:32:18.438Z,2.43
2019-02-08T22:37:24.513Z,2.70
2019-02-08T22:42:30.605Z,2.70
2019-02-08T22:47:36.724Z,6.93
2019-02-08T22:52:42.981Z,2.90
2019-02-08T22:57:49.166Z,2.93
2019-02-08T23:02:55.266Z,3.10
2019-02-08T23:08:01.329Z,3.50
2019-02-08T23:13:08.837Z,3.00
2019-02-08T23:18:15.849Z,2.80
2019-02-08T23:23:24.505Z,3.00
2019-02-08T23:28:30.638Z,2.70
2019-02-08T23:33:36.787Z,3.00
2019-02-08T23:38:42.845Z,3.00
2019-02-08T23:43:48.901Z,3.17
2019-02-08T23:48:55.203Z,3.00
2019-02-08T23:54:01.608Z,3.00
2019-02-08T23:59:07.801Z,3.23
